createdAt,value
2022-10-30T00:00:17.425Z,101628.34
2022-10-30T00:02:47.590Z,101632.16
2022-10-30T00:05:15.619Z,101626.94
2022-10-30T00:07:43.545Z,101639.72
2022-10-30T00:10:11.503Z,101634.53
2022-10-30T00:12:39.222Z,101635.84
2022-10-30T00:15:07.689Z,101632.88
2022-10-30T00:17:36.730Z,101629.59
2022-10-30T00:20:05.225Z,101638.56
2022-10-30T00:22:32.965Z,101638.00
2022-10-30T00:25:00.590Z,101631.75
2022-10-30T00:27:28.547Z,101642.03
2022-10-30T00:29:56.206Z,101642.28
2022-10-30T00:32:23.841Z,101625.41
2022-10-30T00:34:52.887Z,101636.53
2022-10-30T00:37:20.548Z,101626.72
2022-10-30T00:39:48.186Z,101625.06
2022-10-30T00:42:17.625Z,101624.75
2022-10-30T00:44:48.546Z,101622.03
2022-10-30T00:47:20.517Z,101620.63
2022-10-30T00:49:58.348Z,101628.78
2022-10-30T00:52:30.055Z,101613.56
2022-10-30T00:54:59.452Z,101621.97
2022-10-30T00:57:27.597Z,101624.94
2022-10-30T00:59:55.527Z,101612.44
2022-10-30T01:02:23.804Z,101620.00
2022-10-30T01:04:55.332Z,101621.91
2022-10-30T01:07:23.057Z,101616.72
2022-10-30T01:09:50.750Z,101613.44
2022-10-30T01:12:18.540Z,101617.22
2022-10-30T01:14:50.952Z,101622.06
2022-10-30T01:17:43.015Z,101625.03
2022-10-30T01:20:30.465Z,101625.03
2022-10-30T01:23:15.160Z,101631.53
2022-10-30T01:26:06.519Z,101638.88
2022-10-30T01:28:49.365Z,101630.13
2022-10-30T01:31:27.978Z,101632.03
2022-10-30T01:34:06.452Z,101633.09
2022-10-30T01:36:39.518Z,101629.81
2022-10-30T01:39:12.568Z,101630.06
2022-10-30T01:41:40.220Z,101637.38
2022-10-30T01:44:13.864Z,101635.72
2022-10-30T01:46:52.552Z,101632.69
2022-10-30T01:49:39.524Z,101642.47
2022-10-30T01:52:19.762Z,101640.00
2022-10-30T01:54:54.901Z,101651.13
2022-10-30T01:57:35.720Z,101652.19
2022-10-30T02:00:06.886Z,101646.19
2022-10-30T02:02:34.692Z,101645.34
2022-10-30T02:05:02.894Z,101643.72
2022-10-30T02:07:31.873Z,101655.63
2022-10-30T02:10:00.145Z,101651.28
2022-10-30T02:12:27.893Z,101649.28
2022-10-30T02:14:58.871Z,101648.22
2022-10-30T02:17:28.224Z,101648.47
2022-10-30T02:19:56.114Z,101650.38
2022-10-30T02:22:25.366Z,101647.88
2022-10-30T02:24:53.077Z,101645.66
2022-10-30T02:27:20.713Z,101653.81
2022-10-30T02:29:49.286Z,101655.94
2022-10-30T02:32:16.953Z,101653.47
2022-10-30T02:34:44.571Z,101652.88
2022-10-30T02:37:12.258Z,101655.84
2022-10-30T02:39:41.275Z,101660.47
2022-10-30T02:42:08.921Z,101657.16
2022-10-30T02:44:36.577Z,101664.47
2022-10-30T02:47:04.593Z,101659.53
2022-10-30T02:49:32.235Z,101650.56
2022-10-30T02:51:59.894Z,101660.59
2022-10-30T02:54:27.519Z,101652.03
2022-10-30T02:56:56.520Z,101654.84
2022-10-30T02:59:24.202Z,101653.19
2022-10-30T03:01:51.956Z,101660.50
2022-10-30T03:04:19.690Z,101655.06
2022-10-30T03:06:47.292Z,101649.06
2022-10-30T03:09:14.928Z,101657.44
2022-10-30T03:11:44.374Z,101652.03
2022-10-30T03:14:13.570Z,101653.91
2022-10-30T03:16:41.238Z,101648.69
2022-10-30T03:19:09.605Z,101649.75
2022-10-30T03:21:37.319Z,101654.38
2022-10-30T03:24:05.591Z,101658.97
2022-10-30T03:26:33.287Z,101652.97
2022-10-30T03:29:00.991Z,101663.00
2022-10-30T03:31:32.145Z,101654.03
2022-10-30T03:33:59.837Z,101652.38
2022-10-30T03:36:27.748Z,101654.28
2022-10-30T03:38:55.409Z,101646.38
2022-10-30T03:41:23.043Z,101642.00
2022-10-30T03:43:50.704Z,101643.91
2022-10-30T03:46:18.381Z,101648.50
2022-10-30T03:48:50.067Z,101646.84
2022-10-30T03:51:18.399Z,101647.69
2022-10-30T03:53:46.014Z,101652.53
2022-10-30T03:56:13.632Z,101657.38
2022-10-30T03:58:41.281Z,101648.41
2022-10-30T04:01:10.890Z,101652.19
2022-10-30T04:03:38.590Z,101650.53
2022-10-30T04:06:07.752Z,101652.66
2022-10-30T04:08:35.430Z,101649.13
2022-10-30T04:11:03.123Z,101649.38
2022-10-30T04:13:30.805Z,101657.50
2022-10-30T04:15:58.566Z,101666.94
2022-10-30T04:18:26.814Z,101668.84
2022-10-30T04:20:54.573Z,101663.41
2022-10-30T04:23:23.917Z,101651.41
2022-10-30T04:25:51.569Z,101656.56
2022-10-30T04:28:21.213Z,101653.03
2022-10-30T04:30:48.879Z,101666.84
2022-10-30T04:33:16.594Z,101663.31
2022-10-30T04:35:44.392Z,101667.09
2022-10-30T04:38:13.234Z,101655.06
2022-10-30T04:40:44.339Z,101662.97
2022-10-30T04:43:13.822Z,101654.00
2022-10-30T04:45:42.242Z,101648.81
2022-10-30T04:48:12.465Z,101648.81
2022-10-30T04:50:40.353Z,101654.47
2022-10-30T04:53:10.931Z,101642.81
2022-10-30T04:55:38.604Z,101643.03
2022-10-30T04:58:09.340Z,101640.56
2022-10-30T05:00:37.704Z,101627.00
2022-10-30T05:03:05.525Z,101622.66
2022-10-30T05:05:33.821Z,101621.00
2022-10-30T05:08:01.880Z,101621.25
2022-10-30T05:10:29.898Z,101620.41
2022-10-30T05:13:00.044Z,101620.41
2022-10-30T05:15:29.061Z,101624.44
2022-10-30T05:17:56.865Z,101624.44
2022-10-30T05:20:24.857Z,101623.63
2022-10-30T05:22:55.934Z,101622.78
2022-10-30T05:25:24.062Z,101621.13
2022-10-30T05:27:51.800Z,101626.56
2022-10-30T05:30:19.453Z,101626.81
2022-10-30T05:32:48.449Z,101625.97
2022-10-30T05:35:16.080Z,101625.41
2022-10-30T05:37:43.834Z,101630.81
2022-10-30T05:40:12.262Z,101634.59
2022-10-30T05:42:46.205Z,101631.88
2022-10-30T05:45:14.017Z,101634.00
2022-10-30T05:47:41.672Z,101631.53
2022-10-30T05:50:12.551Z,101622.56
2022-10-30T05:52:40.191Z,101637.19
2022-10-30T05:55:08.310Z,101642.03
2022-10-30T05:57:35.939Z,101636.63
2022-10-30T06:00:03.673Z,101637.69
2022-10-30T06:02:31.429Z,101631.66
2022-10-30T06:04:59.284Z,101634.38
2022-10-30T06:07:28.298Z,101629.19
2022-10-30T06:09:55.925Z,101633.78
2022-10-30T06:12:23.590Z,101637.81
2022-10-30T06:14:51.266Z,101639.69
2022-10-30T06:17:18.925Z,101643.47
2022-10-30T06:19:46.625Z,101639.09
2022-10-30T06:22:14.336Z,101638.28
2022-10-30T06:24:43.384Z,101635.81
2022-10-30T06:27:11.034Z,101627.91
2022-10-30T06:29:38.649Z,101626.25
2022-10-30T06:32:07.088Z,101628.38
2022-10-30T06:34:34.805Z,101628.38
2022-10-30T06:37:02.521Z,101631.34
2022-10-30T06:39:30.164Z,101629.44
2022-10-30T06:41:59.149Z,101633.47
2022-10-30T06:44:26.791Z,101632.63
2022-10-30T06:46:54.511Z,101623.69
2022-10-30T06:49:22.206Z,101625.81
2022-10-30T06:51:51.593Z,101623.91
2022-10-30T06:54:19.250Z,101625.22
2022-10-30T06:56:51.553Z,101617.09
2022-10-30T06:59:20.618Z,101631.69
2022-10-30T07:01:48.335Z,101623.56
2022-10-30T07:04:16.207Z,101624.63
2022-10-30T07:06:43.850Z,101628.41
2022-10-30T07:09:11.992Z,101623.22
2022-10-30T07:11:42.190Z,101615.91
2022-10-30T07:14:09.865Z,101609.91
2022-10-30T07:16:39.078Z,101612.59
2022-10-30T07:19:06.846Z,101617.22
2022-10-30T07:21:34.607Z,101620.16
2022-10-30T07:24:02.329Z,101622.28
2022-10-30T07:26:30.040Z,101606.13
2022-10-30T07:28:57.734Z,101624.16
2022-10-30T07:31:41.389Z,101620.38
2022-10-30T07:34:11.842Z,101622.28
2022-10-30T07:36:39.468Z,101626.03
2022-10-30T07:39:07.172Z,101623.56
2022-10-30T07:41:34.864Z,101624.41
2022-10-30T07:44:02.713Z,101621.94
2022-10-30T07:46:30.393Z,101623.81
2022-10-30T07:48:58.071Z,101613.22
2022-10-30T07:51:27.090Z,101614.84
2022-10-30T07:53:54.913Z,101619.22
2022-10-30T07:56:22.566Z,101617.81
2022-10-30T07:58:50.284Z,101620.50
2022-10-30T08:01:18.082Z,101618.88
2022-10-30T08:03:45.873Z,101618.88
2022-10-30T08:06:13.545Z,101612.66
2022-10-30T08:08:43.613Z,101619.13
2022-10-30T08:11:11.558Z,101613.72
2022-10-30T08:13:39.208Z,101618.06
2022-10-30T08:16:07.395Z,101622.66
2022-10-30T08:18:35.352Z,101616.50
2022-10-30T08:21:02.993Z,101611.00
2022-10-30T08:23:30.717Z,101608.28
2022-10-30T08:26:01.297Z,101605.59
2022-10-30T08:28:31.779Z,101608.72
2022-10-30T08:31:01.277Z,101617.09
2022-10-30T08:33:29.205Z,101625.38
2022-10-30T08:35:58.676Z,101625.38
2022-10-30T08:38:27.837Z,101623.50
2022-10-30T08:40:55.915Z,101619.13
2022-10-30T08:43:25.316Z,101606.41
2022-10-30T08:45:53.151Z,101601.00
2022-10-30T08:48:20.940Z,101611.56
2022-10-30T08:50:48.674Z,101617.81
2022-10-30T08:53:17.056Z,101616.16
2022-10-30T08:55:44.744Z,101622.16
2022-10-30T08:58:12.446Z,101619.44
2022-10-30T09:00:41.514Z,101612.38
2022-10-30T09:03:09.147Z,101616.75
2022-10-30T09:05:37.900Z,101616.75
2022-10-30T09:08:05.916Z,101609.44
2022-10-30T09:10:33.598Z,101604.03
2022-10-30T09:13:03.261Z,101603.78
2022-10-30T09:15:31.006Z,101611.44
2022-10-30T09:18:02.464Z,101606.03
2022-10-30T09:20:31.098Z,101608.72
2022-10-30T09:22:59.299Z,101605.78
2022-10-30T09:25:27.416Z,101602.84
2022-10-30T09:27:55.078Z,101599.88
2022-10-30T09:30:23.100Z,101604.47
2022-10-30T09:32:56.030Z,101602.34
2022-10-30T09:35:26.605Z,101599.41
2022-10-30T09:37:54.340Z,101611.91
2022-10-30T09:40:29.646Z,101608.94
2022-10-30T09:43:05.885Z,101608.72
2022-10-30T09:45:57.140Z,101602.81
2022-10-30T09:48:42.643Z,101617.31
2022-10-30T09:51:26.623Z,101623.31
2022-10-30T09:54:06.515Z,101623.06
2022-10-30T09:56:40.933Z,101634.75
2022-10-30T09:59:23.186Z,101622.59
2022-10-30T10:01:55.479Z,101624.84
2022-10-30T10:04:29.202Z,101623.53
2022-10-30T10:07:03.879Z,101629.78
2022-10-30T10:09:37.846Z,101627.66
2022-10-30T10:12:10.605Z,101630.13
2022-10-30T10:14:41.945Z,101626.34
2022-10-30T10:17:14.478Z,101616.09
2022-10-30T10:19:49.330Z,101609.59
2022-10-30T10:22:22.568Z,101606.41
2022-10-30T10:24:50.735Z,101615.13
2022-10-30T10:27:33.238Z,101618.44
2022-10-30T10:30:04.563Z,101596.88
2022-10-30T10:32:53.122Z,101600.84
2022-10-30T10:35:38.950Z,101600.97
2022-10-30T10:38:19.383Z,101603.44
2022-10-30T10:40:59.023Z,101604.00
2022-10-30T10:43:37.798Z,101595.63
2022-10-30T10:46:25.882Z,101604.94
2022-10-30T10:49:11.904Z,101599.25
2022-10-30T10:51:42.359Z,101605.28
2022-10-30T10:54:16.173Z,101600.66
2022-10-30T10:56:48.361Z,101607.50
2022-10-30T10:59:20.581Z,101618.13
2022-10-30T11:01:55.164Z,101619.53
2022-10-30T11:04:31.829Z,101611.38
2022-10-30T11:06:59.454Z,101613.59
2022-10-30T11:09:28.576Z,101608.75
2022-10-30T11:11:56.721Z,101599.31
2022-10-30T11:14:25.926Z,101598.00
2022-10-30T11:17:04.874Z,101590.69
2022-10-30T11:19:32.993Z,101591.28
2022-10-30T11:22:02.250Z,101593.75
2022-10-30T11:24:33.965Z,101591.59
2022-10-30T11:27:18.572Z,101594.66
2022-10-30T11:29:52.179Z,101584.63
2022-10-30T11:32:22.600Z,101582.53
2022-10-30T11:35:03.026Z,101586.88
2022-10-30T11:37:32.713Z,101590.75
2022-10-30T11:40:06.649Z,101588.63
2022-10-30T11:42:35.830Z,101593.81
2022-10-30T11:45:04.535Z,101581.38
2022-10-30T11:50:15.971Z,101578.19
2022-10-30T11:52:45.288Z,101579.34
2022-10-30T11:55:18.005Z,101573.66
2022-10-30T11:57:49.310Z,101574.00
2022-10-30T12:00:19.672Z,101568.31
2022-10-30T12:02:51.416Z,101577.88
2022-10-30T12:05:35.619Z,101576.56
2022-10-30T12:08:21.449Z,101578.78
2022-10-30T12:11:00.036Z,101576.13
2022-10-30T12:13:29.188Z,101569.16
2022-10-30T12:16:08.497Z,101570.63
2022-10-30T12:18:36.707Z,101557.28
2022-10-30T12:21:05.009Z,101560.25
2022-10-30T12:23:33.872Z,101561.72
2022-10-30T12:26:10.902Z,101558.53
2022-10-30T12:28:39.978Z,101553.66
2022-10-30T12:31:14.679Z,101558.03
2022-10-30T12:33:50.197Z,101553.78
2022-10-30T12:36:21.153Z,101563.66
2022-10-30T12:38:53.224Z,101568.66
2022-10-30T12:41:27.652Z,101566.44
2022-10-30T12:44:03.980Z,101559.34
2022-10-30T12:46:36.944Z,101554.81
2022-10-30T12:49:13.951Z,101568.97
2022-10-30T12:51:50.513Z,101566.34
2022-10-30T12:54:21.912Z,101561.41
2022-10-30T12:56:58.159Z,101560.56
2022-10-30T12:59:36.201Z,101545.66
2022-10-30T13:02:17.833Z,101539.56
2022-10-30T13:04:50.801Z,101545.91
2022-10-30T13:07:27.512Z,101536.41
2022-10-30T13:10:05.010Z,101545.44
2022-10-30T13:12:39.101Z,101535.91
2022-10-30T13:15:23.517Z,101534.84
2022-10-30T13:17:51.730Z,101537.09
2022-10-30T13:20:19.902Z,101536.84
2022-10-30T13:22:52.145Z,101538.69
2022-10-30T13:25:27.292Z,101546.28
2022-10-30T13:28:01.393Z,101538.38
2022-10-30T13:30:35.409Z,101544.88
2022-10-30T13:33:13.389Z,101547.34
2022-10-30T13:35:47.866Z,101549.25
2022-10-30T13:38:31.633Z,101553.03
2022-10-30T13:41:05.561Z,101554.44
2022-10-30T13:43:43.499Z,101549.06
2022-10-30T13:46:26.201Z,101553.69
2022-10-30T13:49:03.757Z,101554.50
2022-10-30T13:51:38.282Z,101554.81
2022-10-30T13:54:14.837Z,101552.34
2022-10-30T13:56:43.380Z,101554.25
2022-10-30T13:59:23.239Z,101552.91
2022-10-30T14:02:01.498Z,101541.22
2022-10-30T14:04:37.350Z,101547.53
2022-10-30T14:07:18.838Z,101545.63
2022-10-30T14:09:58.030Z,101544.00
2022-10-30T14:12:53.660Z,101558.41
2022-10-30T14:15:33.945Z,101548.16
2022-10-30T14:18:44.937Z,101551.13
2022-10-30T14:21:37.075Z,101557.66
2022-10-30T14:24:11.928Z,101558.72
2022-10-30T14:26:52.630Z,101563.47
2022-10-30T14:29:51.607Z,101560.00
2022-10-30T14:32:48.914Z,101564.03
2022-10-30T14:35:33.136Z,101565.38
2022-10-30T14:38:17.197Z,101555.00
2022-10-30T14:40:57.466Z,101561.25
2022-10-30T14:43:33.200Z,101559.38
2022-10-30T14:46:02.491Z,101556.38
2022-10-30T14:48:39.627Z,101551.19
2022-10-30T14:51:15.302Z,101556.06
2022-10-30T14:54:00.563Z,101557.78
2022-10-30T14:56:37.074Z,101570.81
2022-10-30T14:59:20.608Z,101569.16
2022-10-30T15:01:56.110Z,101568.91
2022-10-30T15:04:31.497Z,101576.38
2022-10-30T15:07:07.441Z,101576.06
2022-10-30T15:09:46.817Z,101578.59
2022-10-30T15:15:02.861Z,101584.28
2022-10-30T15:17:34.573Z,101591.31
2022-10-30T15:20:08.724Z,101594.28
2022-10-30T15:22:36.831Z,101591.00
2022-10-30T15:25:05.841Z,101593.97
2022-10-30T15:27:35.692Z,101603.50
2022-10-30T15:30:05.340Z,101610.34
2022-10-30T15:32:32.984Z,101609.22
2022-10-30T15:35:03.913Z,101615.22
2022-10-30T15:37:32.375Z,101609.72
2022-10-30T15:40:18.209Z,101620.09
2022-10-30T15:42:47.326Z,101627.69
2022-10-30T15:45:19.494Z,101632.56
2022-10-30T15:47:50.191Z,101634.72
2022-10-30T15:50:21.703Z,101643.38
2022-10-30T15:52:50.808Z,101649.88
2022-10-30T15:55:21.604Z,101658.03
2022-10-30T15:58:08.139Z,101655.31
2022-10-30T16:00:37.747Z,101665.38
2022-10-30T16:03:07.654Z,101676.25
2022-10-30T16:05:36.811Z,101676.50
2022-10-30T16:08:12.967Z,101681.13
2022-10-30T16:10:43.921Z,101698.53
2022-10-30T16:13:17.344Z,101694.16
2022-10-30T16:15:47.468Z,101688.16
2022-10-30T16:18:19.789Z,101700.69
2022-10-30T16:20:52.010Z,101702.56
2022-10-30T16:23:21.131Z,101702.81
2022-10-30T16:25:49.567Z,101700.94
2022-10-30T16:28:26.506Z,101704.47
2022-10-30T16:30:55.655Z,101706.38
2022-10-30T16:33:27.227Z,101714.53
2022-10-30T16:35:57.341Z,101706.38
2022-10-30T16:38:28.002Z,101703.88
2022-10-30T16:40:56.399Z,101703.06
2022-10-30T16:43:30.613Z,101703.06
2022-10-30T16:46:25.048Z,101719.38
2022-10-30T16:48:59.378Z,101718.56
2022-10-30T16:51:29.478Z,101724.25
2022-10-30T16:53:57.476Z,101721.53
2022-10-30T16:56:27.418Z,101722.84
2022-10-30T16:58:58.848Z,101721.22
2022-10-30T17:01:28.537Z,101719.81
2022-10-30T17:03:57.698Z,101725.50
2022-10-30T17:06:36.051Z,101747.50
2022-10-30T17:09:09.521Z,101749.41
2022-10-30T17:11:39.928Z,101749.63
2022-10-30T17:14:19.087Z,101743.38
2022-10-30T17:16:55.263Z,101738.44
2022-10-30T17:19:47.215Z,101735.97
2022-10-30T17:22:20.451Z,101733.25
2022-10-30T17:24:48.531Z,101734.06
2022-10-30T17:27:40.895Z,101737.84
2022-10-30T17:30:48.104Z,101739.75
2022-10-30T17:33:27.653Z,101746.00
2022-10-30T17:38:29.499Z,101777.00
2022-10-30T17:40:57.257Z,101779.72
2022-10-30T17:43:27.179Z,101778.06
2022-10-30T17:45:54.851Z,101777.25
2022-10-30T17:48:26.361Z,101781.84
2022-10-30T17:50:54.396Z,101774.78
2022-10-30T17:53:23.585Z,101775.84
2022-10-30T17:55:58.634Z,101789.69
2022-10-30T17:58:26.292Z,101796.19
2022-10-30T18:00:53.998Z,101808.97
2022-10-30T18:03:21.736Z,101809.19
2022-10-30T18:05:49.660Z,101807.53
2022-10-30T18:08:17.312Z,101814.03
2022-10-30T18:10:44.969Z,101817.00
2022-10-30T18:13:14.897Z,101819.13
2022-10-30T18:15:44.974Z,101819.13
2022-10-30T18:18:12.795Z,101834.63
2022-10-30T18:20:40.569Z,101830.25
2022-10-30T18:23:38.787Z,101845.97
2022-10-30T18:26:06.379Z,101849.75
2022-10-30T18:28:35.456Z,101848.94
2022-10-30T18:31:03.123Z,101847.28
2022-10-30T18:33:30.836Z,101853.78
2022-10-30T18:35:59.977Z,101849.44
2022-10-30T18:38:27.655Z,101847.53
2022-10-30T18:40:55.698Z,101846.72
2022-10-30T18:43:23.374Z,101837.72
2022-10-30T18:45:52.454Z,101833.38
2022-10-30T18:48:20.114Z,101843.41
2022-10-30T18:50:47.769Z,101851.56
2022-10-30T18:53:18.203Z,101851.31
2022-10-30T18:58:18.921Z,101858.41
2022-10-30T19:01:10.574Z,101861.13
2022-10-30T19:03:35.623Z,101865.72
2022-10-30T19:06:03.379Z,101871.16
2022-10-30T19:08:31.092Z,101862.44
2022-10-30T19:10:58.773Z,101867.03
2022-10-30T19:13:26.556Z,101871.66
2022-10-30T19:16:00.465Z,101862.69
2022-10-30T19:18:31.162Z,101863.75
2022-10-30T19:21:05.204Z,101875.44
2022-10-30T19:23:34.599Z,101867.03
2022-10-30T19:26:02.379Z,101863.84
2022-10-30T19:28:30.859Z,101860.06
2022-10-30T19:30:58.649Z,101861.13
2022-10-30T19:33:26.317Z,101871.16
2022-10-30T19:35:55.672Z,101868.44
2022-10-30T19:38:24.915Z,101872.47
2022-10-30T19:40:52.770Z,101872.13
2022-10-30T19:43:20.641Z,101882.19
2022-10-30T19:45:51.294Z,101882.44
2022-10-30T19:48:40.425Z,101885.16
2022-10-30T19:51:11.566Z,101885.63
2022-10-30T19:53:41.329Z,101891.31
2022-10-30T19:56:11.085Z,101890.72
2022-10-30T19:58:38.723Z,101891.78
2022-10-30T20:01:06.744Z,101898.28
2022-10-30T20:03:34.465Z,101893.13
2022-10-30T20:06:02.244Z,101890.66
2022-10-30T20:08:30.157Z,101890.91
2022-10-30T20:11:00.876Z,101889.25
2022-10-30T20:13:29.736Z,101882.97
2022-10-30T20:16:00.421Z,101888.66
2022-10-30T20:18:30.676Z,101887.84
2022-10-30T20:20:59.900Z,101877.44
2022-10-30T20:23:28.759Z,101883.38
2022-10-30T20:26:01.466Z,101894.56
2022-10-30T20:28:32.337Z,101898.34
2022-10-30T20:31:00.057Z,101892.09
2022-10-30T20:33:28.693Z,101894.22
2022-10-30T20:35:57.111Z,101897.78
2022-10-30T20:38:26.729Z,101890.69
2022-10-30T20:40:54.792Z,101898.00
2022-10-30T20:43:28.634Z,101908.06
2022-10-30T20:45:56.302Z,101906.63
2022-10-30T20:48:24.018Z,101905.56
2022-10-30T20:50:53.315Z,101914.78
2022-10-30T20:53:21.046Z,101915.03
2022-10-30T20:55:48.763Z,101920.47
2022-10-30T20:58:16.763Z,101935.09
2022-10-30T21:00:45.991Z,101934.28
2022-10-30T21:03:15.289Z,101936.88
2022-10-30T21:05:45.313Z,101945.38
2022-10-30T21:08:14.198Z,101953.78
2022-10-30T21:10:42.279Z,101951.06
2022-10-30T21:13:10.973Z,101958.38
2022-10-30T21:15:40.111Z,101955.66
2022-10-30T21:18:09.945Z,101950.47
2022-10-30T21:20:38.634Z,101958.63
2022-10-30T21:23:06.679Z,101956.97
2022-10-30T21:25:34.552Z,101954.50
2022-10-30T21:28:02.315Z,101955.31
2022-10-30T21:30:30.039Z,101957.44
2022-10-30T21:32:59.316Z,101961.22
2022-10-30T21:35:29.053Z,101960.63
2022-10-30T21:37:56.704Z,101965.47
2022-10-30T21:40:24.431Z,101964.41
2022-10-30T21:42:52.214Z,101968.44
2022-10-30T21:45:19.850Z,101972.22
2022-10-30T21:47:47.475Z,101966.78
2022-10-30T21:50:15.330Z,101972.44
2022-10-30T21:52:44.518Z,101984.38
2022-10-30T21:55:12.187Z,101988.97
2022-10-30T21:57:39.853Z,101987.31
2022-10-30T22:00:08.892Z,101994.88
2022-10-30T22:02:36.662Z,101992.16
2022-10-30T22:05:04.365Z,101983.19
2022-10-30T22:07:32.351Z,101987.78
2022-10-30T22:10:01.409Z,101990.75
2022-10-30T22:12:29.089Z,102001.59
2022-10-30T22:14:56.786Z,101990.16
2022-10-30T22:17:24.605Z,101984.97
2022-10-30T22:19:52.272Z,101993.94
2022-10-30T22:22:20.002Z,101995.00
2022-10-30T22:24:48.841Z,101997.72
2022-10-30T22:27:17.876Z,102001.47
2022-10-30T22:29:45.558Z,101996.06
2022-10-30T22:32:13.276Z,101999.59
2022-10-30T22:34:40.920Z,102002.31
2022-10-30T22:37:08.899Z,101997.94
2022-10-30T22:39:36.593Z,101997.13
2022-10-30T22:42:04.265Z,102002.53
2022-10-30T22:44:33.304Z,102004.66
2022-10-30T22:47:00.986Z,102006.31
2022-10-30T22:49:28.631Z,102001.13
2022-10-30T22:51:56.271Z,102004.91
2022-10-30T22:54:23.980Z,102006.78
2022-10-30T22:56:51.677Z,102010.56
2022-10-30T22:59:19.341Z,102004.31
2022-10-30T23:01:48.424Z,102004.53
2022-10-30T23:04:16.213Z,102004.53
2022-10-30T23:06:44.208Z,102002.66
2022-10-30T23:09:17.157Z,102002.06
2022-10-30T23:11:45.087Z,102002.28
2022-10-30T23:14:12.741Z,102014.81
2022-10-30T23:16:40.388Z,102009.38
2022-10-30T23:19:10.868Z,102005.25
2022-10-30T23:21:38.656Z,102004.41
2022-10-30T23:24:07.114Z,102004.41
2022-10-30T23:26:36.464Z,102010.91
2022-10-30T23:29:05.477Z,102000.28
2022-10-30T23:31:36.037Z,102008.44
2022-10-30T23:34:06.933Z,102000.53
2022-10-30T23:36:36.355Z,102010.56
2022-10-30T23:39:06.779Z,102012.63
2022-10-30T23:41:35.203Z,102006.38
2022-10-30T23:44:05.525Z,102007.44
2022-10-30T23:46:34.142Z,102012.88
2022-10-30T23:49:02.262Z,101998.72
2022-10-30T23:51:30.020Z,102006.03
2022-10-30T23:53:59.237Z,102007.09
2022-10-30T23:56:29.350Z,102008.16
2022-10-30T23:58:57.345Z,102010.88
